Accueil
METAR-TAF:

METAR-TAF

Aéroports :

Base aérienne Cameri

Novare, Italie

latitude: 45-31N, longitude: 008-40E, altitude: 178 m

Observation

Le bulletin a été fait il y a 3 heures et 19 minutes, à 17:55 UTC
Vent 3 kt de ouest/sud-ouest
Température 28°C
Humidité 45%
Pression 1014 hPa
Visibilité 10 km ou plus
Quelques nuages à une hauteur de 3000 ft

METAR: LIMN 161755Z 25003KT 9999 FEW030 28/15 Q1014 RMK FEW VIS MIN 9999 BLK BLU

Heure: 23:14 (21:14 UTC)

Prévision

Le bulletin a été fait il y a 4 heures et 14 minutes, à 17:00 UTC
Prévision valable du 16 à 18 UTC au 17 à 03 UTC
Vent 6 kt de sud/sud-ouest
Visibilité 10 km ou plus
Quelques nuages à une hauteur de 4000 ft

TAF: LIMN 161700Z 1618/1703 20006KT 9999 FEW040

Observations et prévisions météorologiques de plus de 4000 aéroports (messages METAR et TAF).

Les stations disponibles sont représentées par des disques jaunes et rouges sur la carte.

Passer la souris dessus pour voir le nom de la station.

Cliquer dessus pour voir les observations et prévisions météorologiques.

Pour changer de carte: cliquez sur les boutons verts avec une croix noire pour zoomer, sur le bouton vert avec un tiret pour effectuer un zoom arrière, ou sur les flèches vertes pour les cartes adjacentes.


METAR-TAF: